Flugplatz Uelzen

Für EDVU sind keine METAR/TAF Berichte vorhanden.
Es werden die Flugwettermeldungen vom Flugplatz Fassberg Airport in 20 km Entfernung angezeigt.

Bericht für ETHS

vom 21.07. um 20:20 UTC

Wind 4 kt aus 360°

Sichtweite 10 km oder mehr

aufgelockert bewölkt in 30000 ft

Temperatur 17.0°C

Taupunkt 12.0°C

Luftfeuchtigkeit 72%

Luftdruck 1022 hPa

ETHS 212020Z 36004KT 9999 SCT300 17/12 Q1022 BLU+
Keine Prognose (TAF) verfügbar.
Impressum